createdAt,value
2018-04-28T00:00:44.259Z,995.18
2018-04-28T00:01:44.290Z,995.23
2018-04-28T00:02:44.313Z,995.23
2018-04-28T00:03:44.341Z,995.23
2018-04-28T00:04:44.369Z,995.23
2018-04-28T00:05:44.402Z,995.22
2018-04-28T00:06:44.424Z,995.27
2018-04-28T00:07:44.450Z,995.25
2018-04-28T00:08:44.479Z,995.26
2018-04-28T00:09:44.505Z,995.25
2018-04-28T00:10:44.531Z,995.25
2018-04-28T00:11:44.559Z,995.26
2018-04-28T00:12:44.592Z,995.21
2018-04-28T00:13:44.613Z,995.23
2018-04-28T00:14:44.642Z,995.24
2018-04-28T00:15:44.668Z,995.28
2018-04-28T00:16:44.695Z,995.28
2018-04-28T00:17:44.724Z,995.26
2018-04-28T00:18:44.750Z,995.27
2018-04-28T00:19:44.777Z,995.27
2018-04-28T00:20:44.805Z,995.32
2018-04-28T00:21:44.871Z,995.31
2018-04-28T00:22:44.859Z,995.29
2018-04-28T00:23:44.887Z,995.29
2018-04-28T00:24:44.915Z,995.30
2018-04-28T00:25:44.944Z,995.28
2018-04-28T00:26:44.992Z,995.30
2018-04-28T00:27:44.996Z,995.27
2018-04-28T00:28:45.025Z,995.30
2018-04-28T00:29:45.051Z,995.31
2018-04-28T00:30:45.078Z,995.29
2018-04-28T00:31:45.105Z,995.32
2018-04-28T00:32:45.133Z,995.29
2018-04-28T00:33:45.161Z,995.32
2018-04-28T00:34:45.187Z,995.35
2018-04-28T00:35:45.226Z,995.34
2018-04-28T00:36:45.242Z,995.35
2018-04-28T00:37:45.271Z,995.32
2018-04-28T00:38:45.296Z,995.32
2018-04-28T00:39:45.324Z,995.34
2018-04-28T00:40:45.353Z,995.33
2018-04-28T00:41:45.379Z,995.34
2018-04-28T00:42:45.405Z,995.34
2018-04-28T00:43:45.453Z,995.37
2018-04-28T00:44:45.461Z,995.35
2018-04-28T00:45:45.487Z,995.31
2018-04-28T00:46:45.514Z,995.34
2018-04-28T00:47:45.547Z,995.36
2018-04-28T00:48:45.569Z,995.35
2018-04-28T00:49:45.602Z,995.32
2018-04-28T00:50:45.624Z,995.29
2018-04-28T00:51:45.651Z,995.32
2018-04-28T00:52:45.679Z,995.32
2018-04-28T00:53:45.706Z,995.33
2018-04-28T00:54:45.753Z,995.37
2018-04-28T00:55:45.759Z,995.31
2018-04-28T00:56:45.788Z,995.32
2018-04-28T00:57:45.847Z,995.33
2018-04-28T00:58:45.842Z,995.33
2018-04-28T00:59:45.869Z,995.32
2018-04-28T01:00:45.897Z,995.34
2018-04-28T01:01:45.925Z,995.35
2018-04-28T01:02:45.953Z,995.35
2018-04-28T01:03:45.979Z,995.35
2018-04-28T01:04:46.006Z,995.35
2018-04-28T01:05:46.036Z,995.33
2018-04-28T01:06:46.064Z,995.34
2018-04-28T01:07:46.089Z,995.32
2018-04-28T01:08:46.118Z,995.36
2018-04-28T01:09:46.183Z,995.35
2018-04-28T01:10:46.170Z,995.36
2018-04-28T01:11:46.196Z,995.30
2018-04-28T01:12:46.224Z,995.38
2018-04-28T01:13:46.251Z,995.35
2018-04-28T01:14:46.278Z,995.37
2018-04-28T01:15:46.305Z,995.40
2018-04-28T01:16:46.333Z,995.36
2018-04-28T01:17:46.361Z,995.39
2018-04-28T01:18:46.388Z,995.39
2018-04-28T01:19:46.418Z,995.39
2018-04-28T01:20:46.443Z,995.42
2018-04-28T01:21:46.470Z,995.39
2018-04-28T01:22:46.496Z,995.40
2018-04-28T01:23:46.524Z,995.39
2018-04-28T01:24:46.551Z,995.36
2018-04-28T01:25:46.650Z,995.36
2018-04-28T01:26:46.607Z,995.37
2018-04-28T01:27:46.633Z,995.38
2018-04-28T01:28:46.661Z,995.39
2018-04-28T01:29:46.688Z,995.35
2018-04-28T01:30:46.749Z,995.37
2018-04-28T01:31:46.747Z,995.37
2018-04-28T01:32:46.796Z,995.40
2018-04-28T01:33:46.797Z,995.37
2018-04-28T01:34:46.824Z,995.38
2018-04-28T01:35:46.851Z,995.34
2018-04-28T01:36:46.879Z,995.38
2018-04-28T01:37:46.906Z,995.40
2018-04-28T01:38:46.932Z,995.36
2018-04-28T01:39:46.960Z,995.37
2018-04-28T01:40:46.992Z,995.35
2018-04-28T01:41:47.015Z,995.39
2018-04-28T01:42:47.042Z,995.36
2018-04-28T01:43:47.072Z,995.38
2018-04-28T01:44:47.096Z,995.35
2018-04-28T01:45:47.126Z,995.39
2018-04-28T01:46:47.154Z,995.42
2018-04-28T01:47:47.178Z,995.40
2018-04-28T01:48:47.206Z,995.40
2018-04-28T01:49:47.237Z,995.43
2018-04-28T01:50:47.277Z,995.41
2018-04-28T01:51:47.287Z,995.44
2018-04-28T01:52:47.315Z,995.43
2018-04-28T01:53:47.343Z,995.44
2018-04-28T01:54:47.369Z,995.44
2018-04-28T01:55:47.397Z,995.43
2018-04-28T01:56:47.424Z,995.41
2018-04-28T01:57:47.458Z,995.41
2018-04-28T01:58:47.479Z,995.45
2018-04-28T01:59:47.506Z,995.43
2018-04-28T02:00:47.533Z,995.45
2018-04-28T02:01:47.563Z,995.47
2018-04-28T02:02:47.589Z,995.47
2018-04-28T02:03:47.615Z,995.46
2018-04-28T02:04:47.648Z,995.48
2018-04-28T02:05:47.671Z,995.49
2018-04-28T02:06:47.696Z,995.45
2018-04-28T02:07:47.726Z,995.44
2018-04-28T02:08:47.751Z,995.44
2018-04-28T02:09:47.780Z,995.46
2018-04-28T02:10:47.806Z,995.46
2018-04-28T02:11:47.833Z,995.46
2018-04-28T02:12:47.860Z,995.48
2018-04-28T02:13:47.888Z,995.43
2018-04-28T02:14:47.942Z,995.45
2018-04-28T02:15:47.942Z,995.43
2018-04-28T02:16:47.969Z,995.46
2018-04-28T02:17:48.018Z,995.51
2018-04-28T02:18:48.025Z,995.50
2018-04-28T02:19:48.051Z,995.48
2018-04-28T02:20:48.081Z,995.52
2018-04-28T02:21:48.106Z,995.48
2018-04-28T02:22:48.133Z,995.54
2018-04-28T02:23:48.168Z,995.53
2018-04-28T02:24:48.188Z,995.54
2018-04-28T02:25:48.215Z,995.56
2018-04-28T02:26:48.242Z,995.57
2018-04-28T02:27:48.269Z,995.59
2018-04-28T02:28:48.296Z,995.57
2018-04-28T02:29:48.324Z,995.59
2018-04-28T02:30:48.350Z,995.58
2018-04-28T02:31:48.380Z,995.58
2018-04-28T02:32:48.413Z,995.57
2018-04-28T02:33:48.435Z,995.60
2018-04-28T02:34:48.461Z,995.58
2018-04-28T02:35:48.488Z,995.62
2018-04-28T02:36:48.515Z,995.62
2018-04-28T02:37:48.543Z,995.60
2018-04-28T02:38:48.572Z,995.63
2018-04-28T02:39:48.597Z,995.62
2018-04-28T02:40:48.624Z,995.63
2018-04-28T02:41:48.652Z,995.66
2018-04-28T02:42:48.747Z,995.65
2018-04-28T02:43:48.707Z,995.69
2018-04-28T02:44:48.734Z,995.67
2018-04-28T02:45:48.763Z,995.67
2018-04-28T02:46:48.788Z,995.70
2018-04-28T02:47:48.815Z,995.68
2018-04-28T02:48:48.843Z,995.73
2018-04-28T02:49:48.871Z,995.70
2018-04-28T02:50:48.896Z,995.68
2018-04-28T02:51:48.926Z,995.73
2018-04-28T02:52:48.952Z,995.71
2018-04-28T02:53:49.022Z,995.70
2018-04-28T02:54:49.009Z,995.70
2018-04-28T02:55:49.034Z,995.70
2018-04-28T02:56:49.061Z,995.69
2018-04-28T02:57:49.089Z,995.71
2018-04-28T02:58:49.115Z,995.70
2018-04-28T02:59:49.143Z,995.72
2018-04-28T03:00:49.171Z,995.70
2018-04-28T03:01:49.202Z,995.70
2018-04-28T03:02:49.225Z,995.70
2018-04-28T03:03:49.252Z,995.67
2018-04-28T03:04:49.280Z,995.66
2018-04-28T03:05:49.310Z,995.66
2018-04-28T03:06:49.333Z,995.66
2018-04-28T03:07:49.370Z,995.65
2018-04-28T03:08:49.389Z,995.66
2018-04-28T03:09:49.430Z,995.69
2018-04-28T03:10:49.443Z,995.67
2018-04-28T03:11:49.471Z,995.68
2018-04-28T03:12:49.528Z,995.69
2018-04-28T03:13:49.527Z,995.72
2018-04-28T03:14:49.555Z,995.74
2018-04-28T03:15:49.580Z,995.73
2018-04-28T03:16:49.607Z,995.79
2018-04-28T03:17:49.636Z,995.81
2018-04-28T03:18:49.662Z,995.82
2018-04-28T03:19:49.688Z,995.79
2018-04-28T03:20:49.716Z,995.82
2018-04-28T03:21:49.744Z,995.80
2018-04-28T03:22:49.804Z,995.80
2018-04-28T03:23:49.798Z,995.81
2018-04-28T03:24:49.827Z,995.84
2018-04-28T03:25:49.853Z,995.85
2018-04-28T03:26:49.880Z,995.87
2018-04-28T03:27:49.908Z,995.82
2018-04-28T03:28:49.936Z,995.84
2018-04-28T03:29:50.020Z,995.80
2018-04-28T03:30:49.989Z,995.82
2018-04-28T03:31:50.019Z,995.85
2018-04-28T03:32:50.045Z,995.86
2018-04-28T03:33:50.074Z,995.87
2018-04-28T03:34:50.112Z,995.91
2018-04-28T03:35:50.131Z,995.90
2018-04-28T03:36:50.154Z,995.92
2018-04-28T03:37:50.185Z,995.90
2018-04-28T03:38:50.210Z,995.94
2018-04-28T03:39:50.237Z,995.92
2018-04-28T03:40:50.263Z,995.94
2018-04-28T03:41:50.292Z,995.90
2018-04-28T03:42:50.321Z,995.94
2018-04-28T03:43:50.345Z,995.93
2018-04-28T03:44:50.374Z,995.95
2018-04-28T03:45:50.451Z,995.96
2018-04-28T03:46:50.428Z,995.97
2018-04-28T03:47:50.455Z,995.97
2018-04-28T03:48:50.483Z,995.94
2018-04-28T03:49:50.510Z,995.97
2018-04-28T03:50:50.536Z,996.00
2018-04-28T03:51:50.587Z,995.99
2018-04-28T03:52:50.604Z,996.04
2018-04-28T03:53:50.620Z,996.01
2018-04-28T03:54:50.647Z,996.04
2018-04-28T03:55:50.684Z,996.09
2018-04-28T03:56:50.708Z,996.06
2018-04-28T03:57:50.729Z,996.02
2018-04-28T03:58:50.756Z,996.05
2018-04-28T03:59:50.783Z,996.07
2018-04-28T04:00:50.811Z,996.08
2018-04-28T04:01:50.839Z,996.12
2018-04-28T04:02:50.866Z,996.08
2018-04-28T04:03:50.893Z,996.12
2018-04-28T04:04:50.920Z,996.11
2018-04-28T04:05:50.950Z,996.12
2018-04-28T04:06:51.014Z,996.13
2018-04-28T04:07:51.002Z,996.11
2018-04-28T04:08:51.030Z,996.08
2018-04-28T04:09:51.058Z,996.13
2018-04-28T04:10:51.089Z,996.12
2018-04-28T04:11:51.112Z,996.17
2018-04-28T04:12:51.153Z,996.15
2018-04-28T04:13:51.168Z,996.14
2018-04-28T04:14:51.196Z,996.14
2018-04-28T04:15:51.263Z,996.16
2018-04-28T04:16:51.250Z,996.15
2018-04-28T04:17:51.278Z,996.14
2018-04-28T04:18:51.323Z,996.16
2018-04-28T04:19:51.332Z,996.20
2018-04-28T04:20:51.363Z,996.17
2018-04-28T04:21:51.387Z,996.20
2018-04-28T04:22:51.413Z,996.21
2018-04-28T04:23:51.441Z,996.20
2018-04-28T04:24:51.469Z,996.23
2018-04-28T04:25:51.497Z,996.24
2018-04-28T04:26:51.524Z,996.26
2018-04-28T04:27:51.551Z,996.24
2018-04-28T04:28:51.603Z,996.28
2018-04-28T04:29:51.606Z,996.26
2018-04-28T04:30:51.633Z,996.28
2018-04-28T04:31:51.715Z,996.35
2018-04-28T04:32:51.689Z,996.35
2018-04-28T04:33:51.718Z,996.36
2018-04-28T04:34:51.744Z,996.37
2018-04-28T04:35:51.780Z,996.38
2018-04-28T04:36:51.797Z,996.36
2018-04-28T04:37:51.826Z,996.38
2018-04-28T04:38:51.883Z,996.37
2018-04-28T04:39:51.881Z,996.40
2018-04-28T04:40:51.911Z,996.38
2018-04-28T04:41:51.936Z,996.40
2018-04-28T04:42:51.996Z,996.41
2018-04-28T04:43:51.990Z,996.37
2018-04-28T04:44:52.018Z,996.40
2018-04-28T04:45:52.046Z,996.45
2018-04-28T04:46:52.075Z,996.39
2018-04-28T04:47:52.101Z,996.43
2018-04-28T04:48:52.128Z,996.44
2018-04-28T04:49:52.156Z,996.44
2018-04-28T04:50:52.182Z,996.45
2018-04-28T04:51:52.215Z,996.48
2018-04-28T04:52:52.254Z,996.45
2018-04-28T04:53:52.299Z,996.46
2018-04-28T04:54:52.298Z,996.45
2018-04-28T04:55:52.321Z,996.46
2018-04-28T04:56:52.348Z,996.47
2018-04-28T04:57:52.380Z,996.47
2018-04-28T04:58:52.403Z,996.50
2018-04-28T04:59:52.431Z,996.50
2018-04-28T05:00:52.461Z,996.46
2018-04-28T05:01:52.486Z,996.50
2018-04-28T05:02:52.513Z,996.49
2018-04-28T05:03:52.583Z,996.49
2018-04-28T05:04:52.572Z,996.51
2018-04-28T05:05:52.633Z,996.50
2018-04-28T05:06:52.623Z,996.50
2018-04-28T05:07:52.655Z,996.53
2018-04-28T05:08:52.679Z,996.53
2018-04-28T05:09:52.707Z,996.57
2018-04-28T05:10:52.734Z,996.53
2018-04-28T05:11:52.794Z,996.53
2018-04-28T05:12:52.858Z,996.57
2018-04-28T05:13:52.817Z,996.55
2018-04-28T05:14:52.844Z,996.58
2018-04-28T05:15:52.890Z,996.57
2018-04-28T05:16:52.901Z,996.58
2018-04-28T05:17:52.929Z,996.58
2018-04-28T05:18:52.955Z,996.58
2018-04-28T05:19:52.983Z,996.61
2018-04-28T05:20:53.012Z,996.63
2018-04-28T05:21:53.042Z,996.60
2018-04-28T05:22:53.067Z,996.62
2018-04-28T05:23:53.094Z,996.63
2018-04-28T05:24:53.123Z,996.63
2018-04-28T05:25:53.150Z,996.63
2018-04-28T05:26:53.177Z,996.62
2018-04-28T05:27:53.205Z,996.65
2018-04-28T05:28:53.234Z,996.67
2018-04-28T05:29:53.261Z,996.66
2018-04-28T05:30:53.289Z,996.64
2018-04-28T05:31:53.316Z,996.67
2018-04-28T05:32:53.344Z,996.72
2018-04-28T05:33:53.388Z,996.67
2018-04-28T05:34:53.402Z,996.73
2018-04-28T05:35:53.431Z,996.73
2018-04-28T05:36:53.460Z,996.73
2018-04-28T05:37:53.483Z,996.70
2018-04-28T05:38:53.509Z,996.73
2018-04-28T05:39:53.537Z,996.75
2018-04-28T05:40:53.565Z,996.73
2018-04-28T05:41:53.593Z,996.77
2018-04-28T05:42:53.624Z,996.72
2018-04-28T05:43:53.649Z,996.76
2018-04-28T05:44:53.677Z,996.75
2018-04-28T05:45:53.712Z,996.75
2018-04-28T05:46:53.732Z,996.77
2018-04-28T05:47:53.759Z,996.76
2018-04-28T05:48:53.788Z,996.77
2018-04-28T05:49:53.818Z,996.78
2018-04-28T05:50:53.842Z,996.77
2018-04-28T05:51:53.871Z,996.77
2018-04-28T05:52:53.917Z,996.79
2018-04-28T05:53:53.931Z,996.80
2018-04-28T05:54:53.954Z,996.83
2018-04-28T05:55:53.982Z,996.79
2018-04-28T05:56:54.011Z,996.84
2018-04-28T05:57:54.152Z,996.85
2018-04-28T05:58:54.065Z,996.81
2018-04-28T05:59:54.093Z,996.84
2018-04-28T06:00:54.123Z,996.85
2018-04-28T06:01:54.154Z,996.85
2018-04-28T06:02:54.176Z,996.86
2018-04-28T06:03:54.204Z,996.84
2018-04-28T06:04:54.250Z,996.90
2018-04-28T06:05:54.261Z,996.89
2018-04-28T06:06:54.288Z,996.87
2018-04-28T06:07:54.366Z,996.87
2018-04-28T06:08:54.343Z,996.86
2018-04-28T06:09:54.371Z,996.86
2018-04-28T06:10:54.410Z,996.89
2018-04-28T06:11:54.426Z,996.87
2018-04-28T06:12:54.454Z,996.87
2018-04-28T06:13:54.482Z,996.89
2018-04-28T06:14:54.559Z,996.88
2018-04-28T06:15:54.538Z,996.92
2018-04-28T06:16:54.565Z,996.90
2018-04-28T06:17:54.593Z,996.87
2018-04-28T06:18:54.666Z,996.89
2018-04-28T06:19:54.705Z,996.91
2018-04-28T06:20:54.679Z,996.89
2018-04-28T06:21:54.719Z,996.87
2018-04-28T06:22:54.739Z,996.86
2018-04-28T06:23:54.761Z,996.93
2018-04-28T06:24:54.787Z,996.92
2018-04-28T06:25:54.880Z,996.92
2018-04-28T06:26:54.843Z,996.88
2018-04-28T06:27:54.871Z,996.94
2018-04-28T06:28:54.921Z,996.89
2018-04-28T06:29:54.925Z,996.95
2018-04-28T06:30:54.953Z,996.94
2018-04-28T06:31:54.981Z,996.94
2018-04-28T06:32:55.009Z,996.93
2018-04-28T06:33:55.037Z,996.91
2018-04-28T06:34:55.064Z,996.96
2018-04-28T06:35:55.093Z,996.95
2018-04-28T06:36:55.123Z,996.96
2018-04-28T06:37:55.148Z,996.98
2018-04-28T06:38:55.175Z,996.96
2018-04-28T06:39:55.203Z,996.99
2018-04-28T06:40:55.246Z,997.02
2018-04-28T06:41:55.259Z,997.05
2018-04-28T06:42:55.286Z,997.04
2018-04-28T06:43:55.345Z,997.03
2018-04-28T06:44:55.341Z,997.05
2018-04-28T06:45:55.369Z,997.03
2018-04-28T06:46:55.397Z,997.04
2018-04-28T06:47:55.425Z,997.06
2018-04-28T06:48:55.452Z,997.03
2018-04-28T06:49:55.481Z,997.03
2018-04-28T06:50:55.508Z,997.03
2018-04-28T06:51:55.535Z,997.05
2018-04-28T06:52:55.578Z,997.03
2018-04-28T06:53:55.596Z,997.08
2018-04-28T06:54:55.620Z,997.06
2018-04-28T06:55:55.673Z,997.05
2018-04-28T06:56:55.675Z,997.04
2018-04-28T06:57:55.702Z,997.05
2018-04-28T06:58:55.729Z,997.01
2018-04-28T06:59:55.757Z,997.03
2018-04-28T07:00:55.797Z,997.02
2018-04-28T07:01:55.814Z,997.03
2018-04-28T07:02:55.842Z,997.04
2018-04-28T07:03:55.887Z,997.01
2018-04-28T07:04:55.896Z,997.04
2018-04-28T07:05:55.924Z,997.01
2018-04-28T07:06:55.951Z,997.05
2018-04-28T07:07:55.982Z,997.03
2018-04-28T07:08:56.007Z,997.06
2018-04-28T07:09:56.035Z,997.04
2018-04-28T07:10:56.063Z,997.03
2018-04-28T07:11:56.090Z,997.05
2018-04-28T07:12:56.119Z,997.07
2018-04-28T07:13:56.148Z,997.06
2018-04-28T07:14:56.173Z,997.04
2018-04-28T07:15:56.201Z,997.10
2018-04-28T07:16:56.230Z,997.08
2018-04-28T07:17:56.269Z,997.09
2018-04-28T07:18:56.284Z,997.12
2018-04-28T07:19:56.361Z,997.15
2018-04-28T07:20:56.341Z,997.11
2018-04-28T07:21:56.372Z,997.16
2018-04-28T07:22:56.395Z,997.11
2018-04-28T07:23:56.424Z,997.14
2018-04-28T07:24:56.451Z,997.17
2018-04-28T07:25:56.485Z,997.11
2018-04-28T07:26:56.506Z,997.14
2018-04-28T07:27:56.534Z,997.17
2018-04-28T07:28:56.562Z,997.15
2018-04-28T07:29:56.589Z,997.14
2018-04-28T07:30:56.619Z,997.12
2018-04-28T07:31:56.646Z,997.12
2018-04-28T07:32:56.674Z,997.11
2018-04-28T07:33:56.700Z,997.15
2018-04-28T07:34:56.727Z,997.13
2018-04-28T07:35:56.788Z,997.15
2018-04-28T07:36:56.786Z,997.13
2018-04-28T07:37:56.812Z,997.13
2018-04-28T07:38:56.838Z,997.16
2018-04-28T07:39:56.866Z,997.14
2018-04-28T07:40:56.895Z,997.12
2018-04-28T07:41:56.923Z,997.16
2018-04-28T07:42:56.951Z,997.13
2018-04-28T07:43:56.978Z,997.14
2018-04-28T07:44:57.006Z,997.13
2018-04-28T07:45:57.034Z,997.12
2018-04-28T07:46:57.060Z,997.14
2018-04-28T07:47:57.089Z,997.14
2018-04-28T07:48:57.117Z,997.10
2018-04-28T07:49:57.145Z,997.10
2018-04-28T07:50:57.172Z,997.10
2018-04-28T07:51:57.254Z,997.09
2018-04-28T07:52:57.227Z,997.12
2018-04-28T07:53:57.256Z,997.10
2018-04-28T07:54:57.286Z,997.13
2018-04-28T07:55:57.311Z,997.16
2018-04-28T07:56:57.339Z,997.09
2018-04-28T07:57:57.367Z,997.12
2018-04-28T07:58:57.394Z,997.16
2018-04-28T07:59:57.423Z,997.13
2018-04-28T08:00:57.450Z,997.14
2018-04-28T08:01:57.478Z,997.15
2018-04-28T08:02:57.505Z,997.12
2018-04-28T08:03:57.533Z,997.15
2018-04-28T08:04:57.561Z,997.12
2018-04-28T08:05:57.589Z,997.14
2018-04-28T08:06:57.620Z,997.14
2018-04-28T08:07:57.643Z,997.14
2018-04-28T08:08:57.674Z,997.14
2018-04-28T08:09:57.699Z,997.21
2018-04-28T08:10:57.734Z,997.14
2018-04-28T08:11:57.754Z,997.14
2018-04-28T08:12:57.786Z,997.15
2018-04-28T08:13:57.845Z,997.15
2018-04-28T08:14:57.837Z,997.16
2018-04-28T08:15:57.865Z,997.10
2018-04-28T08:16:57.918Z,997.15
2018-04-28T08:17:57.921Z,997.13
2018-04-28T08:18:57.948Z,997.17
2018-04-28T08:19:57.977Z,997.13
2018-04-28T08:20:58.005Z,997.18
2018-04-28T08:21:58.032Z,997.16
2018-04-28T08:22:58.059Z,997.21
2018-04-28T08:23:58.086Z,997.22
2018-04-28T08:24:58.116Z,997.24
2018-04-28T08:25:58.147Z,997.18
2018-04-28T08:26:58.170Z,997.21
2018-04-28T08:27:58.198Z,997.23
2018-04-28T08:28:58.244Z,997.24
2018-04-28T08:29:58.254Z,997.25
2018-04-28T08:30:58.282Z,997.23
2018-04-28T08:31:58.311Z,997.26
2018-04-28T08:32:58.337Z,997.28
2018-04-28T08:33:58.368Z,997.27
2018-04-28T08:34:58.392Z,997.30
2018-04-28T08:35:58.432Z,997.33
2018-04-28T08:36:58.500Z,997.34
2018-04-28T08:37:58.476Z,997.32
2018-04-28T08:38:58.503Z,997.33
2018-04-28T08:39:58.532Z,997.27
2018-04-28T08:40:58.560Z,997.30
2018-04-28T08:41:58.595Z,997.28
2018-04-28T08:42:58.615Z,997.30
2018-04-28T08:43:58.643Z,997.26
2018-04-28T08:44:58.671Z,997.28
2018-04-28T08:45:58.698Z,997.24
2018-04-28T08:46:58.725Z,997.31
2018-04-28T08:47:58.754Z,997.30
2018-04-28T08:48:58.784Z,997.26
2018-04-28T08:49:58.810Z,997.27
2018-04-28T08:50:58.892Z,997.28
2018-04-28T08:51:58.897Z,997.23
2018-04-28T08:52:58.893Z,997.27
2018-04-28T08:53:58.921Z,997.28
2018-04-28T08:54:58.951Z,997.25
2018-04-28T08:55:58.976Z,997.24
2018-04-28T08:56:59.005Z,997.22
2018-04-28T08:57:59.032Z,997.23
2018-04-28T08:58:59.059Z,997.27
2018-04-28T08:59:59.088Z,997.26
2018-04-28T09:00:59.116Z,997.28
2018-04-28T09:01:59.144Z,997.26
2018-04-28T09:02:59.170Z,997.26
2018-04-28T09:03:59.201Z,997.27
2018-04-28T09:04:59.227Z,997.29
2018-04-28T09:05:59.255Z,997.28
2018-04-28T09:06:59.282Z,997.27
2018-04-28T09:07:59.310Z,997.29
2018-04-28T09:08:59.338Z,997.24
2018-04-28T09:09:59.366Z,997.27
2018-04-28T09:10:59.394Z,997.26
2018-04-28T09:11:59.426Z,997.29
2018-04-28T09:12:59.481Z,997.25
2018-04-28T09:13:59.495Z,997.24
2018-04-28T09:14:59.505Z,997.23
2018-04-28T09:15:59.536Z,997.22
2018-04-28T09:16:59.560Z,997.24
2018-04-28T09:17:59.603Z,997.19
2018-04-28T09:18:59.615Z,997.21
2018-04-28T09:19:59.648Z,997.19
2018-04-28T09:20:59.675Z,997.19
2018-04-28T09:21:59.700Z,997.17
2018-04-28T09:22:59.727Z,997.18
2018-04-28T09:23:59.755Z,997.19
2018-04-28T09:24:59.783Z,997.15
2018-04-28T09:25:59.811Z,997.12
2018-04-28T09:26:59.837Z,997.15
2018-04-28T09:27:59.866Z,997.13
2018-04-28T09:28:59.894Z,997.11
2018-04-28T09:29:59.922Z,997.13
2018-04-28T09:30:59.951Z,997.11
2018-04-28T09:31:59.978Z,997.12
2018-04-28T09:33:00.103Z,997.14
2018-04-28T09:34:00.033Z,997.14
2018-04-28T09:35:00.061Z,997.15
2018-04-28T09:36:00.088Z,997.18
2018-04-28T09:37:00.116Z,997.20
2018-04-28T09:38:00.144Z,997.20
2018-04-28T09:39:00.171Z,997.21
2018-04-28T09:40:00.275Z,997.23
2018-04-28T09:41:00.227Z,997.22
2018-04-28T09:42:00.254Z,997.24
2018-04-28T09:43:00.281Z,997.23
2018-04-28T09:44:00.312Z,997.27
2018-04-28T09:45:00.338Z,997.26
2018-04-28T09:46:00.367Z,997.30
2018-04-28T09:47:00.395Z,997.29
2018-04-28T09:48:00.421Z,997.30
2018-04-28T09:49:00.462Z,997.32
2018-04-28T09:50:00.476Z,997.34
2018-04-28T09:51:00.504Z,997.29
2018-04-28T09:52:00.533Z,997.30
2018-04-28T09:53:00.560Z,997.27
2018-04-28T09:54:00.588Z,997.29
2018-04-28T09:55:00.617Z,997.28
2018-04-28T09:56:00.642Z,997.25
2018-04-28T09:57:00.696Z,997.23
2018-04-28T09:58:00.699Z,997.21
2018-04-28T09:59:00.751Z,997.23
2018-04-28T10:00:00.754Z,997.24
2018-04-28T10:01:00.782Z,997.27
2018-04-28T10:02:00.809Z,997.29
2018-04-28T10:03:00.863Z,997.35
2018-04-28T10:04:00.868Z,997.40
2018-04-28T10:05:00.892Z,997.43
2018-04-28T10:06:00.997Z,997.47
2018-04-28T10:07:00.975Z,997.51
2018-04-28T10:08:00.977Z,997.54
2018-04-28T10:09:01.004Z,997.53
2018-04-28T10:10:01.031Z,997.52
2018-04-28T10:11:01.060Z,997.55
2018-04-28T10:12:01.090Z,997.58
2018-04-28T10:13:01.116Z,997.61
2018-04-28T10:14:01.143Z,997.60
2018-04-28T10:15:01.176Z,997.64
2018-04-28T10:16:01.196Z,997.67
2018-04-28T10:17:01.225Z,997.72
2018-04-28T10:18:01.253Z,997.73
2018-04-28T10:19:01.286Z,997.77
2018-04-28T10:20:01.370Z,997.80
2018-04-28T10:21:01.336Z,997.84
2018-04-28T10:22:01.364Z,997.85
2018-04-28T10:23:01.391Z,997.89
2018-04-28T10:24:01.419Z,997.89
2018-04-28T10:25:01.447Z,997.89
2018-04-28T10:26:01.500Z,997.88
2018-04-28T10:27:01.502Z,997.93
2018-04-28T10:28:01.529Z,997.93
2018-04-28T10:29:01.557Z,997.89
2018-04-28T10:30:01.584Z,997.91
2018-04-28T10:31:01.613Z,997.96
2018-04-28T10:32:01.640Z,997.94
2018-04-28T10:33:01.668Z,997.98
2018-04-28T10:34:01.700Z,997.99
2018-04-28T10:35:01.723Z,997.96
2018-04-28T10:36:01.750Z,997.96
2018-04-28T10:37:01.781Z,998.00
2018-04-28T10:38:01.808Z,997.96
2018-04-28T10:39:01.834Z,997.98
2018-04-28T10:40:01.892Z,997.95
2018-04-28T10:41:01.889Z,997.93
2018-04-28T10:42:01.918Z,997.92
2018-04-28T10:43:01.944Z,997.93
2018-04-28T10:44:01.987Z,997.92
2018-04-28T10:45:02.001Z,997.95
2018-04-28T10:46:02.051Z,997.96
2018-04-28T10:47:02.059Z,997.94
2018-04-28T10:48:02.084Z,997.98
2018-04-28T10:49:02.111Z,997.96
2018-04-28T10:50:02.139Z,998.01
2018-04-28T10:51:02.166Z,998.04
2018-04-28T10:52:02.194Z,998.08
2018-04-28T10:53:02.224Z,998.07
2018-04-28T10:54:02.250Z,998.08
2018-04-28T10:55:02.282Z,998.06
2018-04-28T10:56:02.305Z,998.09
2018-04-28T10:57:02.333Z,998.07
2018-04-28T10:58:02.361Z,998.07
2018-04-28T10:59:02.388Z,998.10
2018-04-28T11:00:02.416Z,998.09
2018-04-28T11:01:02.443Z,998.11
2018-04-28T11:02:02.472Z,998.10
2018-04-28T11:03:02.534Z,998.10
2018-04-28T11:04:02.527Z,998.11
2018-04-28T11:05:02.573Z,998.12
2018-04-28T11:06:02.582Z,998.14
2018-04-28T11:07:02.610Z,998.12
2018-04-28T11:08:02.641Z,998.15
2018-04-28T11:09:02.666Z,998.13
2018-04-28T11:10:02.694Z,998.17
2018-04-28T11:11:02.720Z,998.16
2018-04-28T11:12:02.753Z,998.12
2018-04-28T11:13:02.776Z,998.11
2018-04-28T11:14:02.805Z,998.17
2018-04-28T11:15:02.833Z,998.14
2018-04-28T11:16:02.861Z,998.15
2018-04-28T11:17:02.890Z,998.13
2018-04-28T11:18:02.916Z,998.16
2018-04-28T11:19:02.943Z,998.18
2018-04-28T11:20:03.009Z,998.16
2018-04-28T11:21:03.000Z,998.16
2018-04-28T11:22:03.027Z,998.19
2018-04-28T11:23:03.054Z,998.19
2018-04-28T11:24:03.084Z,998.21
2018-04-28T11:25:03.110Z,998.25
2018-04-28T11:26:03.138Z,998.27
2018-04-28T11:27:03.165Z,998.30
2018-04-28T11:28:03.195Z,998.34
2018-04-28T11:29:03.242Z,998.37
2018-04-28T11:30:03.249Z,998.37
2018-04-28T11:31:03.310Z,998.40
2018-04-28T11:32:03.304Z,998.38
2018-04-28T11:33:03.336Z,998.44
2018-04-28T11:34:03.360Z,998.45
2018-04-28T11:35:03.386Z,998.50
2018-04-28T11:36:03.415Z,998.50
2018-04-28T11:37:03.501Z,998.50
2018-04-28T11:38:03.471Z,998.52
2018-04-28T11:39:03.534Z,998.54
2018-04-28T11:40:03.526Z,998.49
2018-04-28T11:41:03.555Z,998.55
2018-04-28T11:42:03.581Z,998.50
2018-04-28T11:43:03.608Z,998.53
2018-04-28T11:44:03.640Z,998.55
2018-04-28T11:45:03.664Z,998.56
2018-04-28T11:46:03.692Z,998.58
2018-04-28T11:47:03.721Z,998.59
2018-04-28T11:48:03.751Z,998.59
2018-04-28T11:49:03.775Z,998.62
2018-04-28T11:50:03.803Z,998.59
2018-04-28T11:51:03.830Z,998.62
2018-04-28T11:52:03.880Z,998.62
2018-04-28T11:53:03.888Z,998.67
2018-04-28T11:54:03.914Z,998.69
2018-04-28T11:55:03.946Z,998.68
2018-04-28T11:56:03.970Z,998.72
2018-04-28T11:57:03.999Z,998.74
2018-04-28T11:58:04.025Z,998.70
2018-04-28T11:59:04.129Z,998.75
2018-04-28T12:00:04.080Z,998.78
2018-04-28T12:01:04.108Z,998.75
2018-04-28T12:02:04.135Z,998.81
2018-04-28T12:03:04.163Z,998.75
2018-04-28T12:04:04.192Z,998.76
2018-04-28T12:05:04.283Z,998.77
2018-04-28T12:06:04.247Z,998.76
2018-04-28T12:07:04.274Z,998.78
2018-04-28T12:08:04.310Z,998.74
2018-04-28T12:09:04.343Z,998.75
2018-04-28T12:10:04.370Z,998.72
2018-04-28T12:11:04.384Z,998.76
2018-04-28T12:12:04.411Z,998.72
2018-04-28T12:13:04.440Z,998.72
2018-04-28T12:14:04.524Z,998.72
2018-04-28T12:15:04.494Z,998.70
2018-04-28T12:16:04.522Z,998.66
2018-04-28T12:17:04.586Z,998.69
2018-04-28T12:18:04.582Z,998.68
2018-04-28T12:19:04.606Z,998.64
2018-04-28T12:20:04.633Z,998.66
2018-04-28T12:21:04.744Z,998.68
2018-04-28T12:22:04.690Z,998.69
2018-04-28T12:23:04.715Z,998.64
2018-04-28T12:24:04.752Z,998.67
2018-04-28T12:25:04.772Z,998.65
2018-04-28T12:26:04.801Z,998.63
2018-04-28T12:27:04.827Z,998.62
2018-04-28T12:28:04.855Z,998.63
2018-04-28T12:29:04.882Z,998.57